sensor_id;sensor_type;location;lat;lon;timestamp;P1;durP1;ratioP1;P2;durP2;ratioP2
13244;SDS011;6689;53.400;12.486;2023-04-08T00:01:57;55.00;;;23.60;;
13244;SDS011;6689;53.400;12.486;2023-04-08T00:04:25;44.97;;;19.73;;
13244;SDS011;6689;53.400;12.486;2023-04-08T00:06:52;52.92;;;22.48;;
13244;SDS011;6689;53.400;12.486;2023-04-08T00:09:20;43.78;;;22.27;;
13244;SDS011;6689;53.400;12.486;2023-04-08T00:11:47;48.65;;;21.63;;
13244;SDS011;6689;53.400;12.486;2023-04-08T00:14:15;83.10;;;24.70;;
13244;SDS011;6689;53.400;12.486;2023-04-08T00:50:36;46.67;;;19.67;;
13244;SDS011;6689;53.400;12.486;2023-04-08T00:53:04;48.65;;;22.33;;
13244;SDS011;6689;53.400;12.486;2023-04-08T00:55:38;70.38;;;25.70;;
13244;SDS011;6689;53.400;12.486;2023-04-08T00:58:06;61.08;;;23.92;;
13244;SDS011;6689;53.400;12.486;2023-04-08T01:00:34;68.88;;;24.77;;
13244;SDS011;6689;53.400;12.486;2023-04-08T01:03:08;71.10;;;23.88;;
13244;SDS011;6689;53.400;12.486;2023-04-08T01:05:44;79.97;;;25.35;;
13244;SDS011;6689;53.400;12.486;2023-04-08T01:08:21;73.80;;;25.27;;
13244;SDS011;6689;53.400;12.486;2023-04-08T01:10:52;63.15;;;24.35;;
13244;SDS011;6689;53.400;12.486;2023-04-08T01:13:23;76.82;;;24.17;;
13244;SDS011;6689;53.400;12.486;2023-04-08T01:15:53;59.42;;;22.23;;
13244;SDS011;6689;53.400;12.486;2023-04-08T01:18:21;79.47;;;24.75;;
13244;SDS011;6689;53.400;12.486;2023-04-08T01:20:52;77.75;;;25.15;;
13244;SDS011;6689;53.400;12.486;2023-04-08T01:23:22;87.55;;;26.38;;
13244;SDS011;6689;53.400;12.486;2023-04-08T01:26:11;64.05;;;22.75;;
13244;SDS011;6689;53.400;12.486;2023-04-08T01:28:46;47.90;;;20.23;;
13244;SDS011;6689;53.400;12.486;2023-04-08T01:31:16;55.15;;;21.10;;
13244;SDS011;6689;53.400;12.486;2023-04-08T01:33:48;43.80;;;18.30;;
13244;SDS011;6689;53.400;12.486;2023-04-08T01:36:17;62.00;;;23.92;;
13244;SDS011;6689;53.400;12.486;2023-04-08T01:38:48;66.60;;;24.23;;
13244;SDS011;6689;53.400;12.486;2023-04-08T01:41:18;55.33;;;21.92;;
13244;SDS011;6689;53.400;12.486;2023-04-08T01:43:47;44.63;;;20.73;;
13244;SDS011;6689;53.400;12.486;2023-04-08T01:46:15;65.22;;;23.50;;
13244;SDS011;6689;53.400;12.486;2023-04-08T01:48:43;44.40;;;20.55;;
13244;SDS011;6689;53.400;12.486;2023-04-08T01:51:12;57.13;;;22.38;;
13244;SDS011;6689;53.400;12.486;2023-04-08T01:53:41;57.40;;;22.67;;
13244;SDS011;6689;53.400;12.486;2023-04-08T01:56:10;63.80;;;23.27;;
13244;SDS011;6689;53.400;12.486;2023-04-08T01:58:42;63.15;;;22.95;;
13244;SDS011;6689;53.400;12.486;2023-04-08T02:01:15;57.87;;;22.57;;
13244;SDS011;6689;53.400;12.486;2023-04-08T02:03:44;53.97;;;24.23;;
13244;SDS011;6689;53.400;12.486;2023-04-08T02:06:13;54.85;;;22.00;;
13244;SDS011;6689;53.400;12.486;2023-04-08T02:08:40;56.38;;;20.48;;
13244;SDS011;6689;53.400;12.486;2023-04-08T02:11:08;73.38;;;23.55;;
13244;SDS011;6689;53.400;12.486;2023-04-08T02:13:35;63.15;;;26.08;;
13244;SDS011;6689;53.400;12.486;2023-04-08T02:16:07;64.63;;;22.15;;
13244;SDS011;6689;53.400;12.486;2023-04-08T02:18:42;66.22;;;21.50;;
13244;SDS011;6689;53.400;12.486;2023-04-08T02:21:12;60.35;;;22.08;;
13244;SDS011;6689;53.400;12.486;2023-04-08T02:23:41;89.00;;;27.13;;
13244;SDS011;6689;53.400;12.486;2023-04-08T02:26:15;61.30;;;22.98;;
13244;SDS011;6689;53.400;12.486;2023-04-08T02:28:45;83.03;;;24.83;;
13244;SDS011;6689;53.400;12.486;2023-04-08T02:31:16;71.97;;;25.10;;
13244;SDS011;6689;53.400;12.486;2023-04-08T02:33:44;49.50;;;20.75;;
13244;SDS011;6689;53.400;12.486;2023-04-08T02:36:14;65.40;;;22.92;;
13244;SDS011;6689;53.400;12.486;2023-04-08T02:38:46;72.00;;;23.70;;
13244;SDS011;6689;53.400;12.486;2023-04-08T02:41:14;54.20;;;21.55;;
13244;SDS011;6689;53.400;12.486;2023-04-08T02:43:41;44.28;;;16.00;;
13244;SDS011;6689;53.400;12.486;2023-04-08T02:46:08;59.75;;;20.40;;
13244;SDS011;6689;53.400;12.486;2023-04-08T02:48:38;52.35;;;19.50;;
13244;SDS011;6689;53.400;12.486;2023-04-08T02:51:05;50.30;;;20.17;;
13244;SDS011;6689;53.400;12.486;2023-04-08T02:53:33;62.58;;;22.85;;
13244;SDS011;6689;53.400;12.486;2023-04-08T02:56:00;46.85;;;19.33;;
13244;SDS011;6689;53.400;12.486;2023-04-08T02:58:27;60.42;;;19.15;;
13244;SDS011;6689;53.400;12.486;2023-04-08T03:00:55;35.53;;;16.52;;
13244;SDS011;6689;53.400;12.486;2023-04-08T03:03:22;51.25;;;17.55;;
13244;SDS011;6689;53.400;12.486;2023-04-08T03:05:57;54.72;;;18.33;;
13244;SDS011;6689;53.400;12.486;2023-04-08T03:08:24;46.75;;;17.52;;
13244;SDS011;6689;53.400;12.486;2023-04-08T03:10:52;45.25;;;16.67;;
13244;SDS011;6689;53.400;12.486;2023-04-08T03:13:19;40.33;;;13.27;;
13244;SDS011;6689;53.400;12.486;2023-04-08T03:15:46;53.78;;;17.85;;
13244;SDS011;6689;53.400;12.486;2023-04-08T03:18:14;44.55;;;17.35;;
13244;SDS011;6689;53.400;12.486;2023-04-08T03:20:41;30.70;;;13.55;;
13244;SDS011;6689;53.400;12.486;2023-04-08T03:23:10;33.92;;;15.75;;
13244;SDS011;6689;53.400;12.486;2023-04-08T03:25:37;34.88;;;14.93;;
13244;SDS011;6689;53.400;12.486;2023-04-08T03:28:05;36.10;;;15.18;;
13244;SDS011;6689;53.400;12.486;2023-04-08T03:30:32;31.23;;;13.98;;
13244;SDS011;6689;53.400;12.486;2023-04-08T03:32:59;42.30;;;15.88;;
13244;SDS011;6689;53.400;12.486;2023-04-08T03:35:27;47.38;;;15.38;;
13244;SDS011;6689;53.400;12.486;2023-04-08T03:37:55;50.50;;;18.23;;
13244;SDS011;6689;53.400;12.486;2023-04-08T03:40:23;52.83;;;17.80;;
13244;SDS011;6689;53.400;12.486;2023-04-08T03:42:51;45.92;;;19.33;;
13244;SDS011;6689;53.400;12.486;2023-04-08T03:45:18;49.45;;;17.17;;
13244;SDS011;6689;53.400;12.486;2023-04-08T03:47:45;49.63;;;17.30;;
13244;SDS011;6689;53.400;12.486;2023-04-08T03:50:13;38.65;;;15.93;;
13244;SDS011;6689;53.400;12.486;2023-04-08T03:52:40;54.80;;;16.63;;
13244;SDS011;6689;53.400;12.486;2023-04-08T03:55:08;42.95;;;16.90;;
13244;SDS011;6689;53.400;12.486;2023-04-08T03:57:36;34.13;;;14.77;;
13244;SDS011;6689;53.400;12.486;2023-04-08T04:00:06;33.45;;;15.77;;
13244;SDS011;6689;53.400;12.486;2023-04-08T04:02:34;55.42;;;19.13;;
13244;SDS011;6689;53.400;12.486;2023-04-08T04:05:04;47.25;;;14.98;;
13244;SDS011;6689;53.400;12.486;2023-04-08T04:07:32;53.03;;;19.30;;
13244;SDS011;6689;53.400;12.486;2023-04-08T04:09:59;47.22;;;16.98;;
13244;SDS011;6689;53.400;12.486;2023-04-08T04:12:26;44.47;;;17.25;;
13244;SDS011;6689;53.400;12.486;2023-04-08T04:14:55;46.92;;;18.85;;
13244;SDS011;6689;53.400;12.486;2023-04-08T04:17:23;47.90;;;16.05;;
13244;SDS011;6689;53.400;12.486;2023-04-08T04:19:51;68.55;;;21.73;;
13244;SDS011;6689;53.400;12.486;2023-04-08T04:22:18;60.80;;;20.02;;
13244;SDS011;6689;53.400;12.486;2023-04-08T04:24:46;74.97;;;20.65;;
13244;SDS011;6689;53.400;12.486;2023-04-08T04:27:13;69.82;;;21.88;;
13244;SDS011;6689;53.400;12.486;2023-04-08T04:29:41;68.50;;;20.63;;
13244;SDS011;6689;53.400;12.486;2023-04-08T04:32:11;45.67;;;17.63;;
13244;SDS011;6689;53.400;12.486;2023-04-08T04:34:38;54.90;;;18.23;;
13244;SDS011;6689;53.400;12.486;2023-04-08T04:37:06;63.83;;;20.20;;
13244;SDS011;6689;53.400;12.486;2023-04-08T04:39:33;69.45;;;18.08;;
13244;SDS011;6689;53.400;12.486;2023-04-08T04:42:00;51.25;;;17.58;;
13244;SDS011;6689;53.400;12.486;2023-04-08T04:44:28;71.35;;;20.48;;
13244;SDS011;6689;53.400;12.486;2023-04-08T04:46:56;60.80;;;19.08;;
13244;SDS011;6689;53.400;12.486;2023-04-08T04:49:25;63.08;;;19.98;;
13244;SDS011;6689;53.400;12.486;2023-04-08T04:51:55;35.08;;;15.75;;
13244;SDS011;6689;53.400;12.486;2023-04-08T04:54:23;42.45;;;16.75;;
13244;SDS011;6689;53.400;12.486;2023-04-08T04:56:50;41.42;;;17.50;;
13244;SDS011;6689;53.400;12.486;2023-04-08T04:59:18;46.30;;;16.65;;
13244;SDS011;6689;53.400;12.486;2023-04-08T05:01:45;42.17;;;16.15;;
13244;SDS011;6689;53.400;12.486;2023-04-08T05:04:12;39.08;;;16.05;;
13244;SDS011;6689;53.400;12.486;2023-04-08T05:06:41;32.60;;;15.00;;
13244;SDS011;6689;53.400;12.486;2023-04-08T05:09:08;36.70;;;16.10;;
13244;SDS011;6689;53.400;12.486;2023-04-08T05:11:36;30.25;;;13.25;;
13244;SDS011;6689;53.400;12.486;2023-04-08T05:14:03;31.02;;;13.95;;
13244;SDS011;6689;53.400;12.486;2023-04-08T05:16:31;46.83;;;18.63;;
13244;SDS011;6689;53.400;12.486;2023-04-08T05:18:58;29.63;;;13.85;;
13244;SDS011;6689;53.400;12.486;2023-04-08T05:21:26;30.13;;;14.15;;
13244;SDS011;6689;53.400;12.486;2023-04-08T05:23:55;37.38;;;15.48;;
13244;SDS011;6689;53.400;12.486;2023-04-08T05:26:22;38.63;;;15.82;;
13244;SDS011;6689;53.400;12.486;2023-04-08T05:28:50;51.78;;;17.05;;
13244;SDS011;6689;53.400;12.486;2023-04-08T05:31:18;36.22;;;15.13;;
13244;SDS011;6689;53.400;12.486;2023-04-08T05:33:46;35.65;;;14.60;;
13244;SDS011;6689;53.400;12.486;2023-04-08T05:36:16;48.40;;;16.83;;
13244;SDS011;6689;53.400;12.486;2023-04-08T05:38:43;47.22;;;14.45;;
13244;SDS011;6689;53.400;12.486;2023-04-08T05:41:12;47.08;;;16.70;;
13244;SDS011;6689;53.400;12.486;2023-04-08T05:43:42;42.20;;;15.93;;
13244;SDS011;6689;53.400;12.486;2023-04-08T05:46:10;47.78;;;16.42;;
13244;SDS011;6689;53.400;12.486;2023-04-08T05:48:37;34.88;;;14.75;;
13244;SDS011;6689;53.400;12.486;2023-04-08T05:51:04;45.63;;;17.23;;
13244;SDS011;6689;53.400;12.486;2023-04-08T05:53:32;40.30;;;15.30;;
13244;SDS011;6689;53.400;12.486;2023-04-08T05:55:59;35.78;;;15.52;;
13244;SDS011;6689;53.400;12.486;2023-04-08T05:58:28;32.08;;;14.93;;
13244;SDS011;6689;53.400;12.486;2023-04-08T06:00:55;41.13;;;15.73;;
13244;SDS011;6689;53.400;12.486;2023-04-08T06:03:23;49.28;;;18.70;;
13244;SDS011;6689;53.400;12.486;2023-04-08T06:05:50;44.10;;;17.52;;
13244;SDS011;6689;53.400;12.486;2023-04-08T06:08:17;38.80;;;16.75;;
13244;SDS011;6689;53.400;12.486;2023-04-08T06:10:47;40.00;;;16.70;;
13244;SDS011;6689;53.400;12.486;2023-04-08T06:13:16;51.25;;;20.20;;
13244;SDS011;6689;53.400;12.486;2023-04-08T06:15:45;47.47;;;17.60;;
13244;SDS011;6689;53.400;12.486;2023-04-08T06:18:14;34.05;;;16.98;;
13244;SDS011;6689;53.400;12.486;2023-04-08T06:20:42;40.25;;;14.98;;
13244;SDS011;6689;53.400;12.486;2023-04-08T06:23:10;58.15;;;17.20;;
13244;SDS011;6689;53.400;12.486;2023-04-08T06:25:37;44.55;;;18.90;;
13244;SDS011;6689;53.400;12.486;2023-04-08T06:28:06;55.03;;;17.83;;
13244;SDS011;6689;53.400;12.486;2023-04-08T06:30:35;44.88;;;16.75;;
13244;SDS011;6689;53.400;12.486;2023-04-08T06:33:04;53.22;;;17.85;;
13244;SDS011;6689;53.400;12.486;2023-04-08T06:35:31;50.30;;;17.55;;
13244;SDS011;6689;53.400;12.486;2023-04-08T06:37:59;49.85;;;17.50;;
13244;SDS011;6689;53.400;12.486;2023-04-08T06:40:26;39.88;;;17.25;;
13244;SDS011;6689;53.400;12.486;2023-04-08T06:42:53;51.00;;;18.83;;
13244;SDS011;6689;53.400;12.486;2023-04-08T06:45:21;49.10;;;20.08;;
13244;SDS011;6689;53.400;12.486;2023-04-08T06:47:48;41.13;;;16.45;;
13244;SDS011;6689;53.400;12.486;2023-04-08T06:50:20;36.90;;;16.58;;
13244;SDS011;6689;53.400;12.486;2023-04-08T06:52:48;51.30;;;18.67;;
13244;SDS011;6689;53.400;12.486;2023-04-08T06:55:15;52.42;;;17.55;;
13244;SDS011;6689;53.400;12.486;2023-04-08T06:57:43;48.10;;;18.75;;
13244;SDS011;6689;53.400;12.486;2023-04-08T07:00:10;42.33;;;17.05;;
13244;SDS011;6689;53.400;12.486;2023-04-08T07:02:38;36.00;;;17.65;;
13244;SDS011;6689;53.400;12.486;2023-04-08T07:05:06;40.90;;;19.02;;
13244;SDS011;6689;53.400;12.486;2023-04-08T07:07:37;39.88;;;17.00;;
13244;SDS011;6689;53.400;12.486;2023-04-08T07:10:06;48.45;;;18.23;;
13244;SDS011;6689;53.400;12.486;2023-04-08T07:12:34;50.22;;;19.42;;
13244;SDS011;6689;53.400;12.486;2023-04-08T07:15:01;44.58;;;18.33;;
13244;SDS011;6689;53.400;12.486;2023-04-08T07:17:29;52.10;;;17.55;;
13244;SDS011;6689;53.400;12.486;2023-04-08T07:19:56;46.95;;;17.38;;
13244;SDS011;6689;53.400;12.486;2023-04-08T07:22:23;58.47;;;19.98;;
13244;SDS011;6689;53.400;12.486;2023-04-08T07:24:52;53.47;;;18.20;;
13244;SDS011;6689;53.400;12.486;2023-04-08T07:27:22;68.55;;;20.52;;
13244;SDS011;6689;53.400;12.486;2023-04-08T07:29:51;51.13;;;19.73;;
13244;SDS011;6689;53.400;12.486;2023-04-08T07:32:19;56.47;;;18.55;;
13244;SDS011;6689;53.400;12.486;2023-04-08T07:34:46;49.75;;;18.70;;
13244;SDS011;6689;53.400;12.486;2023-04-08T07:37:14;52.45;;;20.08;;
13244;SDS011;6689;53.400;12.486;2023-04-08T07:39:42;47.72;;;20.60;;
13244;SDS011;6689;53.400;12.486;2023-04-08T07:42:11;59.63;;;21.15;;
13244;SDS011;6689;53.400;12.486;2023-04-08T07:44:39;50.85;;;20.33;;
13244;SDS011;6689;53.400;12.486;2023-04-08T07:47:07;42.42;;;17.90;;
13244;SDS011;6689;53.400;12.486;2023-04-08T07:49:36;54.95;;;19.33;;
13244;SDS011;6689;53.400;12.486;2023-04-08T07:52:03;52.33;;;20.10;;
13244;SDS011;6689;53.400;12.486;2023-04-08T07:54:30;59.25;;;20.10;;
13244;SDS011;6689;53.400;12.486;2023-04-08T07:56:58;70.22;;;21.60;;
13244;SDS011;6689;53.400;12.486;2023-04-08T07:59:28;60.95;;;19.48;;
13244;SDS011;6689;53.400;12.486;2023-04-08T08:01:55;78.65;;;21.95;;
13244;SDS011;6689;53.400;12.486;2023-04-08T08:04:22;65.22;;;18.38;;
13244;SDS011;6689;53.400;12.486;2023-04-08T08:06:52;65.90;;;20.92;;
13244;SDS011;6689;53.400;12.486;2023-04-08T08:09:19;67.45;;;21.08;;
13244;SDS011;6689;53.400;12.486;2023-04-08T08:11:47;59.55;;;20.17;;
13244;SDS011;6689;53.400;12.486;2023-04-08T08:14:14;61.75;;;19.33;;
13244;SDS011;6689;53.400;12.486;2023-04-08T08:16:43;53.35;;;18.85;;
13244;SDS011;6689;53.400;12.486;2023-04-08T08:19:10;64.38;;;21.30;;
13244;SDS011;6689;53.400;12.486;2023-04-08T08:21:38;58.08;;;19.52;;
13244;SDS011;6689;53.400;12.486;2023-04-08T08:24:06;58.60;;;20.65;;
13244;SDS011;6689;53.400;12.486;2023-04-08T08:26:33;68.10;;;23.65;;
13244;SDS011;6689;53.400;12.486;2023-04-08T08:29:02;76.68;;;21.83;;
13244;SDS011;6689;53.400;12.486;2023-04-08T08:31:30;90.18;;;23.42;;
13244;SDS011;6689;53.400;12.486;2023-04-08T08:33:59;69.05;;;20.73;;
13244;SDS011;6689;53.400;12.486;2023-04-08T08:36:26;80.97;;;22.30;;
13244;SDS011;6689;53.400;12.486;2023-04-08T08:38:56;82.55;;;23.55;;
13244;SDS011;6689;53.400;12.486;2023-04-08T08:41:23;73.88;;;20.73;;
13244;SDS011;6689;53.400;12.486;2023-04-08T08:43:50;92.78;;;23.63;;
13244;SDS011;6689;53.400;12.486;2023-04-08T08:46:24;76.63;;;25.15;;
13244;SDS011;6689;53.400;12.486;2023-04-08T08:48:51;64.25;;;20.85;;
13244;SDS011;6689;53.400;12.486;2023-04-08T08:51:20;62.20;;;22.67;;
13244;SDS011;6689;53.400;12.486;2023-04-08T08:53:50;55.97;;;20.42;;
13244;SDS011;6689;53.400;12.486;2023-04-08T08:56:17;60.47;;;24.70;;
13244;SDS011;6689;53.400;12.486;2023-04-08T08:58:46;70.72;;;23.80;;
13244;SDS011;6689;53.400;12.486;2023-04-08T09:01:29;64.68;;;23.77;;
13244;SDS011;6689;53.400;12.486;2023-04-08T09:04:10;81.85;;;24.95;;
13244;SDS011;6689;53.400;12.486;2023-04-08T09:06:42;71.85;;;24.45;;
13244;SDS011;6689;53.400;12.486;2023-04-08T09:09:10;66.22;;;23.13;;
13244;SDS011;6689;53.400;12.486;2023-04-08T09:11:38;76.90;;;24.73;;
13244;SDS011;6689;53.400;12.486;2023-04-08T09:14:16;74.57;;;22.95;;
13244;SDS011;6689;53.400;12.486;2023-04-08T09:16:44;48.40;;;20.85;;
13244;SDS011;6689;53.400;12.486;2023-04-08T09:19:14;64.35;;;23.20;;
13244;SDS011;6689;53.400;12.486;2023-04-08T09:21:43;45.33;;;20.00;;
13244;SDS011;6689;53.400;12.486;2023-04-08T09:24:26;45.80;;;18.60;;
13244;SDS011;6689;53.400;12.486;2023-04-08T09:26:54;57.72;;;21.05;;
13244;SDS011;6689;53.400;12.486;2023-04-08T09:29:22;61.08;;;21.27;;
13244;SDS011;6689;53.400;12.486;2023-04-08T09:31:52;51.47;;;20.83;;
13244;SDS011;6689;53.400;12.486;2023-04-08T09:34:20;55.00;;;23.15;;
13244;SDS011;6689;53.400;12.486;2023-04-08T09:36:49;52.00;;;20.77;;
13244;SDS011;6689;53.400;12.486;2023-04-08T09:39:17;47.03;;;20.35;;
13244;SDS011;6689;53.400;12.486;2023-04-08T09:41:47;45.30;;;20.17;;
13244;SDS011;6689;53.400;12.486;2023-04-08T09:44:17;45.08;;;20.77;;
13244;SDS011;6689;53.400;12.486;2023-04-08T09:46:50;43.83;;;20.30;;
13244;SDS011;6689;53.400;12.486;2023-04-08T09:49:24;44.92;;;20.48;;
13244;SDS011;6689;53.400;12.486;2023-04-08T09:52:03;35.58;;;18.60;;
13244;SDS011;6689;53.400;12.486;2023-04-08T09:54:36;43.28;;;19.83;;
13244;SDS011;6689;53.400;12.486;2023-04-08T09:57:15;33.28;;;17.63;;
13244;SDS011;6689;53.400;12.486;2023-04-08T09:59:49;35.33;;;19.07;;
13244;SDS011;6689;53.400;12.486;2023-04-08T10:02:23;37.55;;;18.55;;
13244;SDS011;6689;53.400;12.486;2023-04-08T10:04:55;38.95;;;19.70;;
13244;SDS011;6689;53.400;12.486;2023-04-08T10:07:25;33.17;;;18.85;;
13244;SDS011;6689;53.400;12.486;2023-04-08T10:09:52;33.42;;;18.60;;
13244;SDS011;6689;53.400;12.486;2023-04-08T10:12:21;31.92;;;16.95;;
13244;SDS011;6689;53.400;12.486;2023-04-08T10:17:50;41.08;;;18.33;;
13244;SDS011;6689;53.400;12.486;2023-04-08T10:23:09;34.47;;;17.30;;
13244;SDS011;6689;53.400;12.486;2023-04-08T10:25:37;35.00;;;19.02;;
13244;SDS011;6689;53.400;12.486;2023-04-08T10:28:24;33.17;;;17.27;;
13244;SDS011;6689;53.400;12.486;2023-04-08T10:30:52;30.63;;;16.80;;
13244;SDS011;6689;53.400;12.486;2023-04-08T10:33:21;34.63;;;17.80;;
13244;SDS011;6689;53.400;12.486;2023-04-08T10:35:52;31.30;;;16.05;;
13244;SDS011;6689;53.400;12.486;2023-04-08T10:38:22;29.85;;;15.73;;
13244;SDS011;6689;53.400;12.486;2023-04-08T10:40:49;28.38;;;16.33;;
13244;SDS011;6689;53.400;12.486;2023-04-08T10:43:16;26.95;;;14.90;;
13244;SDS011;6689;53.400;12.486;2023-04-08T10:45:44;26.75;;;15.00;;
13244;SDS011;6689;53.400;12.486;2023-04-08T10:48:18;25.45;;;15.02;;
13244;SDS011;6689;53.400;12.486;2023-04-08T10:50:52;27.00;;;16.38;;
13244;SDS011;6689;53.400;12.486;2023-04-08T10:53:26;27.23;;;16.08;;
13244;SDS011;6689;53.400;12.486;2023-04-08T10:55:54;28.70;;;15.52;;
13244;SDS011;6689;53.400;12.486;2023-04-08T11:01:01;32.55;;;17.30;;
13244;SDS011;6689;53.400;12.486;2023-04-08T11:03:30;32.50;;;17.95;;
13244;SDS011;6689;53.400;12.486;2023-04-08T11:05:59;33.00;;;18.67;;
13244;SDS011;6689;53.400;12.486;2023-04-08T11:08:31;34.60;;;16.80;;
13244;SDS011;6689;53.400;12.486;2023-04-08T11:10:59;33.17;;;17.23;;
13244;SDS011;6689;53.400;12.486;2023-04-08T11:13:26;31.60;;;18.83;;
13244;SDS011;6689;53.400;12.486;2023-04-08T11:15:57;35.70;;;19.45;;
13244;SDS011;6689;53.400;12.486;2023-04-08T11:18:26;35.80;;;18.13;;
13244;SDS011;6689;53.400;12.486;2023-04-08T11:20:54;33.30;;;16.15;;
13244;SDS011;6689;53.400;12.486;2023-04-08T11:23:21;32.80;;;17.63;;
13244;SDS011;6689;53.400;12.486;2023-04-08T11:25:53;36.50;;;17.80;;
13244;SDS011;6689;53.400;12.486;2023-04-08T11:28:20;33.83;;;17.83;;
13244;SDS011;6689;53.400;12.486;2023-04-08T11:30:49;33.30;;;19.10;;
13244;SDS011;6689;53.400;12.486;2023-04-08T11:33:18;32.05;;;17.30;;
13244;SDS011;6689;53.400;12.486;2023-04-08T11:35:45;29.52;;;17.42;;
13244;SDS011;6689;53.400;12.486;2023-04-08T11:38:20;31.08;;;16.00;;
13244;SDS011;6689;53.400;12.486;2023-04-08T11:40:52;33.63;;;16.85;;
13244;SDS011;6689;53.400;12.486;2023-04-08T11:43:20;32.10;;;15.98;;
13244;SDS011;6689;53.400;12.486;2023-04-08T11:45:50;34.22;;;17.55;;
13244;SDS011;6689;53.400;12.486;2023-04-08T11:48:18;31.45;;;16.20;;
13244;SDS011;6689;53.400;12.486;2023-04-08T11:50:45;30.83;;;16.80;;
13244;SDS011;6689;53.400;12.486;2023-04-08T11:53:15;35.58;;;17.85;;
13244;SDS011;6689;53.400;12.486;2023-04-08T11:55:44;29.83;;;16.58;;
13244;SDS011;6689;53.400;12.486;2023-04-08T11:58:14;31.92;;;16.83;;
13244;SDS011;6689;53.400;12.486;2023-04-08T12:00:41;32.30;;;17.45;;
13244;SDS011;6689;53.400;12.486;2023-04-08T12:03:10;32.65;;;20.60;;
13244;SDS011;6689;53.400;12.486;2023-04-08T12:05:37;31.50;;;17.30;;
13244;SDS011;6689;53.400;12.486;2023-04-08T12:08:07;31.52;;;16.95;;
13244;SDS011;6689;53.400;12.486;2023-04-08T12:10:34;30.52;;;17.27;;
13244;SDS011;6689;53.400;12.486;2023-04-08T12:13:02;39.70;;;18.42;;
13244;SDS011;6689;53.400;12.486;2023-04-08T12:15:31;31.60;;;17.67;;
13244;SDS011;6689;53.400;12.486;2023-04-08T12:17:58;33.03;;;18.27;;
13244;SDS011;6689;53.400;12.486;2023-04-08T12:20:25;29.20;;;18.13;;
13244;SDS011;6689;53.400;12.486;2023-04-08T12:22:53;30.17;;;17.95;;
13244;SDS011;6689;53.400;12.486;2023-04-08T12:25:22;30.30;;;17.35;;
13244;SDS011;6689;53.400;12.486;2023-04-08T12:27:51;30.88;;;17.30;;
13244;SDS011;6689;53.400;12.486;2023-04-08T12:30:18;31.48;;;16.77;;
13244;SDS011;6689;53.400;12.486;2023-04-08T12:32:48;30.38;;;17.65;;
13244;SDS011;6689;53.400;12.486;2023-04-08T12:35:16;31.75;;;17.85;;
13244;SDS011;6689;53.400;12.486;2023-04-08T12:37:46;26.08;;;15.85;;
13244;SDS011;6689;53.400;12.486;2023-04-08T12:40:13;25.90;;;16.45;;
13244;SDS011;6689;53.400;12.486;2023-04-08T12:42:40;30.33;;;17.85;;
13244;SDS011;6689;53.400;12.486;2023-04-08T12:45:08;28.73;;;16.35;;
13244;SDS011;6689;53.400;12.486;2023-04-08T12:47:36;31.85;;;17.90;;
13244;SDS011;6689;53.400;12.486;2023-04-08T12:50:08;30.08;;;15.88;;
13244;SDS011;6689;53.400;12.486;2023-04-08T12:52:37;32.15;;;17.15;;
13244;SDS011;6689;53.400;12.486;2023-04-08T12:55:05;26.70;;;16.10;;
13244;SDS011;6689;53.400;12.486;2023-04-08T12:57:33;25.33;;;14.85;;
13244;SDS011;6689;53.400;12.486;2023-04-08T13:00:00;23.35;;;15.05;;
13244;SDS011;6689;53.400;12.486;2023-04-08T13:02:28;22.20;;;14.63;;
13244;SDS011;6689;53.400;12.486;2023-04-08T13:04:55;21.92;;;13.50;;
13244;SDS011;6689;53.400;12.486;2023-04-08T13:07:24;24.50;;;13.68;;
13244;SDS011;6689;53.400;12.486;2023-04-08T13:09:53;19.02;;;13.30;;
13244;SDS011;6689;53.400;12.486;2023-04-08T13:12:20;18.60;;;13.18;;
13244;SDS011;6689;53.400;12.486;2023-04-08T13:14:48;20.50;;;13.85;;
13244;SDS011;6689;53.400;12.486;2023-04-08T13:17:15;18.33;;;13.50;;
13244;SDS011;6689;53.400;12.486;2023-04-08T13:19:43;22.48;;;13.10;;
13244;SDS011;6689;53.400;12.486;2023-04-08T13:22:11;25.10;;;13.50;;
13244;SDS011;6689;53.400;12.486;2023-04-08T13:24:41;22.75;;;13.00;;
13244;SDS011;6689;53.400;12.486;2023-04-08T13:27:11;20.73;;;12.85;;
13244;SDS011;6689;53.400;12.486;2023-04-08T13:29:38;21.30;;;12.10;;
13244;SDS011;6689;53.400;12.486;2023-04-08T13:32:06;19.70;;;12.27;;
13244;SDS011;6689;53.400;12.486;2023-04-08T13:34:35;16.27;;;10.18;;
13244;SDS011;6689;53.400;12.486;2023-04-08T13:37:02;19.65;;;11.00;;
13244;SDS011;6689;53.400;12.486;2023-04-08T13:39:32;16.35;;;11.13;;
13244;SDS011;6689;53.400;12.486;2023-04-08T13:42:02;15.65;;;9.70;;
13244;SDS011;6689;53.400;12.486;2023-04-08T13:44:29;15.10;;;10.63;;
13244;SDS011;6689;53.400;12.486;2023-04-08T13:46:57;15.52;;;10.10;;
13244;SDS011;6689;53.400;12.486;2023-04-08T13:49:26;14.93;;;10.95;;
13244;SDS011;6689;53.400;12.486;2023-04-08T13:51:53;14.90;;;10.82;;
13244;SDS011;6689;53.400;12.486;2023-04-08T13:54:21;18.80;;;11.88;;
13244;SDS011;6689;53.400;12.486;2023-04-08T13:56:48;20.00;;;11.50;;
13244;SDS011;6689;53.400;12.486;2023-04-08T13:59:17;20.35;;;12.48;;
13244;SDS011;6689;53.400;12.486;2023-04-08T14:01:44;16.55;;;11.55;;
13244;SDS011;6689;53.400;12.486;2023-04-08T14:04:11;23.65;;;13.60;;
13244;SDS011;6689;53.400;12.486;2023-04-08T14:06:39;29.98;;;14.35;;
13244;SDS011;6689;53.400;12.486;2023-04-08T14:09:07;21.27;;;13.82;;
13244;SDS011;6689;53.400;12.486;2023-04-08T14:11:37;22.40;;;14.70;;
13244;SDS011;6689;53.400;12.486;2023-04-08T14:14:04;23.35;;;14.48;;
13244;SDS011;6689;53.400;12.486;2023-04-08T14:16:38;28.80;;;17.50;;
13244;SDS011;6689;53.400;12.486;2023-04-08T14:19:06;27.73;;;15.32;;
13244;SDS011;6689;53.400;12.486;2023-04-08T14:21:37;27.35;;;17.13;;
13244;SDS011;6689;53.400;12.486;2023-04-08T14:24:04;29.52;;;18.27;;
13244;SDS011;6689;53.400;12.486;2023-04-08T14:26:31;28.48;;;17.95;;
13244;SDS011;6689;53.400;12.486;2023-04-08T14:29:00;30.63;;;18.73;;
13244;SDS011;6689;53.400;12.486;2023-04-08T14:31:29;30.98;;;17.83;;
13244;SDS011;6689;53.400;12.486;2023-04-08T14:33:58;29.17;;;18.10;;
13244;SDS011;6689;53.400;12.486;2023-04-08T14:36:26;35.47;;;17.85;;
13244;SDS011;6689;53.400;12.486;2023-04-08T14:38:54;31.27;;;16.88;;
13244;SDS011;6689;53.400;12.486;2023-04-08T14:41:21;34.63;;;18.58;;
13244;SDS011;6689;53.400;12.486;2023-04-08T14:43:50;33.05;;;20.17;;
13244;SDS011;6689;53.400;12.486;2023-04-08T14:46:18;31.48;;;17.92;;
13244;SDS011;6689;53.400;12.486;2023-04-08T14:48:47;29.52;;;17.80;;
13244;SDS011;6689;53.400;12.486;2023-04-08T14:51:21;33.97;;;20.90;;
13244;SDS011;6689;53.400;12.486;2023-04-08T14:53:51;35.30;;;18.15;;
13244;SDS011;6689;53.400;12.486;2023-04-08T14:56:20;33.05;;;19.77;;
13244;SDS011;6689;53.400;12.486;2023-04-08T14:58:47;34.38;;;18.92;;
13244;SDS011;6689;53.400;12.486;2023-04-08T15:01:15;34.05;;;18.75;;
13244;SDS011;6689;53.400;12.486;2023-04-08T15:03:44;38.35;;;20.65;;
13244;SDS011;6689;53.400;12.486;2023-04-08T15:06:12;34.33;;;19.77;;
13244;SDS011;6689;53.400;12.486;2023-04-08T15:08:43;41.75;;;20.83;;
13244;SDS011;6689;53.400;12.486;2023-04-08T15:11:11;39.17;;;17.98;;
13244;SDS011;6689;53.400;12.486;2023-04-08T15:13:41;43.47;;;20.52;;